sensor_id;sensor_type;location;lat;lon;timestamp;P1;durP1;ratioP1;P2;durP2;ratioP2
57047;SDS011;42934;54.294;18.598;2023-04-01T00:00:20;12.23;;;5.17;;
57047;SDS011;42934;54.294;18.598;2023-04-01T00:03:09;9.13;;;5.00;;
57047;SDS011;42934;54.294;18.598;2023-04-01T00:05:39;23.00;;;5.60;;
57047;SDS011;42934;54.294;18.598;2023-04-01T00:08:10;13.82;;;6.22;;
57047;SDS011;42934;54.294;18.598;2023-04-01T00:10:39;9.57;;;5.70;;
57047;SDS011;42934;54.294;18.598;2023-04-01T00:13:09;10.57;;;5.55;;
57047;SDS011;42934;54.294;18.598;2023-04-01T00:15:40;8.23;;;5.37;;
57047;SDS011;42934;54.294;18.598;2023-04-01T00:18:10;11.98;;;5.38;;
57047;SDS011;42934;54.294;18.598;2023-04-01T00:20:42;8.45;;;5.60;;
57047;SDS011;42934;54.294;18.598;2023-04-01T00:23:14;13.73;;;5.53;;
57047;SDS011;42934;54.294;18.598;2023-04-01T00:25:44;15.25;;;6.00;;
57047;SDS011;42934;54.294;18.598;2023-04-01T00:28:15;11.48;;;5.68;;
57047;SDS011;42934;54.294;18.598;2023-04-01T00:30:45;8.43;;;5.47;;
57047;SDS011;42934;54.294;18.598;2023-04-01T00:33:15;11.95;;;5.57;;
57047;SDS011;42934;54.294;18.598;2023-04-01T00:35:44;14.77;;;5.10;;
57047;SDS011;42934;54.294;18.598;2023-04-01T00:38:15;17.23;;;5.50;;
57047;SDS011;42934;54.294;18.598;2023-04-01T00:40:45;7.47;;;4.50;;
57047;SDS011;42934;54.294;18.598;2023-04-01T00:43:16;7.25;;;4.18;;
57047;SDS011;42934;54.294;18.598;2023-04-01T00:45:48;5.90;;;4.00;;
57047;SDS011;42934;54.294;18.598;2023-04-01T00:48:18;9.50;;;3.92;;
57047;SDS011;42934;54.294;18.598;2023-04-01T00:50:53;16.67;;;4.93;;
57047;SDS011;42934;54.294;18.598;2023-04-01T00:53:27;16.65;;;4.30;;
57047;SDS011;42934;54.294;18.598;2023-04-01T00:56:00;11.25;;;4.40;;
57047;SDS011;42934;54.294;18.598;2023-04-01T00:58:33;11.27;;;4.57;;
57047;SDS011;42934;54.294;18.598;2023-04-01T01:01:07;10.38;;;4.60;;
57047;SDS011;42934;54.294;18.598;2023-04-01T01:03:37;14.00;;;5.30;;
57047;SDS011;42934;54.294;18.598;2023-04-01T01:06:08;17.55;;;4.80;;
57047;SDS011;42934;54.294;18.598;2023-04-01T01:08:55;13.93;;;5.13;;
57047;SDS011;42934;54.294;18.598;2023-04-01T01:11:39;16.52;;;5.95;;
57047;SDS011;42934;54.294;18.598;2023-04-01T01:14:13;8.05;;;5.43;;
57047;SDS011;42934;54.294;18.598;2023-04-01T01:16:53;18.25;;;6.45;;
57047;SDS011;42934;54.294;18.598;2023-04-01T01:19:35;10.77;;;5.97;;
57047;SDS011;42934;54.294;18.598;2023-04-01T01:22:35;15.35;;;6.40;;
57047;SDS011;42934;54.294;18.598;2023-04-01T01:25:17;9.50;;;6.30;;
57047;SDS011;42934;54.294;18.598;2023-04-01T01:28:03;13.02;;;6.90;;
57047;SDS011;42934;54.294;18.598;2023-04-01T01:30:47;9.80;;;6.60;;
57047;SDS011;42934;54.294;18.598;2023-04-01T01:33:32;12.15;;;6.78;;
57047;SDS011;42934;54.294;18.598;2023-04-01T01:36:14;12.07;;;7.68;;
57047;SDS011;42934;54.294;18.598;2023-04-01T01:38:47;11.25;;;7.18;;
57047;SDS011;42934;54.294;18.598;2023-04-01T01:41:19;11.75;;;8.15;;
57047;SDS011;42934;54.294;18.598;2023-04-01T01:43:51;12.88;;;8.40;;
57047;SDS011;42934;54.294;18.598;2023-04-01T01:46:25;11.38;;;8.02;;
57047;SDS011;42934;54.294;18.598;2023-04-01T01:48:56;12.50;;;8.52;;
57047;SDS011;42934;54.294;18.598;2023-04-01T01:51:29;13.65;;;8.50;;
57047;SDS011;42934;54.294;18.598;2023-04-01T01:54:00;9.50;;;7.25;;
57047;SDS011;42934;54.294;18.598;2023-04-01T01:56:32;12.65;;;7.95;;
57047;SDS011;42934;54.294;18.598;2023-04-01T01:59:04;11.23;;;7.88;;
57047;SDS011;42934;54.294;18.598;2023-04-01T02:01:39;10.98;;;7.43;;
57047;SDS011;42934;54.294;18.598;2023-04-01T02:04:13;10.15;;;7.18;;
57047;SDS011;42934;54.294;18.598;2023-04-01T02:06:47;9.80;;;6.95;;
57047;SDS011;42934;54.294;18.598;2023-04-01T02:09:21;11.10;;;6.78;;
57047;SDS011;42934;54.294;18.598;2023-04-01T02:11:51;9.05;;;6.43;;
57047;SDS011;42934;54.294;18.598;2023-04-01T02:14:24;11.05;;;6.75;;
57047;SDS011;42934;54.294;18.598;2023-04-01T02:16:57;10.25;;;6.43;;
57047;SDS011;42934;54.294;18.598;2023-04-01T02:19:32;8.60;;;6.78;;
57047;SDS011;42934;54.294;18.598;2023-04-01T02:22:08;10.90;;;7.05;;
57047;SDS011;42934;54.294;18.598;2023-04-01T02:24:41;9.77;;;6.90;;
57047;SDS011;42934;54.294;18.598;2023-04-01T02:27:12;8.75;;;6.47;;
57047;SDS011;42934;54.294;18.598;2023-04-01T02:29:41;9.00;;;7.18;;
57047;SDS011;42934;54.294;18.598;2023-04-01T02:32:11;9.35;;;6.70;;
57047;SDS011;42934;54.294;18.598;2023-04-01T02:34:42;11.02;;;7.00;;
57047;SDS011;42934;54.294;18.598;2023-04-01T02:37:14;10.60;;;7.90;;
57047;SDS011;42934;54.294;18.598;2023-04-01T02:39:43;8.60;;;6.88;;
57047;SDS011;42934;54.294;18.598;2023-04-01T02:42:13;8.03;;;5.60;;
57047;SDS011;42934;54.294;18.598;2023-04-01T02:44:42;11.37;;;5.50;;
57047;SDS011;42934;54.294;18.598;2023-04-01T02:47:12;7.75;;;5.40;;
57047;SDS011;42934;54.294;18.598;2023-04-01T02:49:41;6.85;;;5.53;;
57047;SDS011;42934;54.294;18.598;2023-04-01T02:52:10;8.77;;;5.60;;
57047;SDS011;42934;54.294;18.598;2023-04-01T02:54:41;9.18;;;6.25;;
57047;SDS011;42934;54.294;18.598;2023-04-01T02:57:10;8.05;;;6.00;;
57047;SDS011;42934;54.294;18.598;2023-04-01T02:59:39;9.32;;;5.80;;
57047;SDS011;42934;54.294;18.598;2023-04-01T03:02:09;7.53;;;5.68;;
57047;SDS011;42934;54.294;18.598;2023-04-01T03:04:38;7.20;;;5.28;;
57047;SDS011;42934;54.294;18.598;2023-04-01T03:07:08;7.05;;;5.45;;
57047;SDS011;42934;54.294;18.598;2023-04-01T03:09:38;7.10;;;5.68;;
57047;SDS011;42934;54.294;18.598;2023-04-01T03:12:09;7.38;;;5.55;;
57047;SDS011;42934;54.294;18.598;2023-04-01T03:14:46;7.43;;;5.88;;
57047;SDS011;42934;54.294;18.598;2023-04-01T03:17:16;9.48;;;6.85;;
57047;SDS011;42934;54.294;18.598;2023-04-01T03:19:45;12.75;;;6.63;;
57047;SDS011;42934;54.294;18.598;2023-04-01T03:22:15;7.78;;;5.47;;
57047;SDS011;42934;54.294;18.598;2023-04-01T03:24:49;6.53;;;5.05;;
57047;SDS011;42934;54.294;18.598;2023-04-01T03:27:18;6.43;;;4.65;;
57047;SDS011;42934;54.294;18.598;2023-04-01T03:29:47;6.30;;;5.00;;
57047;SDS011;42934;54.294;18.598;2023-04-01T03:32:17;6.10;;;4.93;;
57047;SDS011;42934;54.294;18.598;2023-04-01T03:34:46;9.10;;;6.47;;
57047;SDS011;42934;54.294;18.598;2023-04-01T03:37:16;7.85;;;5.63;;
57047;SDS011;42934;54.294;18.598;2023-04-01T03:39:45;5.47;;;4.70;;
57047;SDS011;42934;54.294;18.598;2023-04-01T03:42:16;5.70;;;4.65;;
57047;SDS011;42934;54.294;18.598;2023-04-01T03:44:45;5.15;;;4.40;;
57047;SDS011;42934;54.294;18.598;2023-04-01T03:47:14;6.40;;;4.93;;
57047;SDS011;42934;54.294;18.598;2023-04-01T03:49:43;6.50;;;5.13;;
57047;SDS011;42934;54.294;18.598;2023-04-01T03:52:13;8.35;;;5.93;;
57047;SDS011;42934;54.294;18.598;2023-04-01T03:54:42;5.80;;;4.60;;
57047;SDS011;42934;54.294;18.598;2023-04-01T03:57:11;5.55;;;4.50;;
57047;SDS011;42934;54.294;18.598;2023-04-01T03:59:42;6.00;;;4.60;;
57047;SDS011;42934;54.294;18.598;2023-04-01T04:02:12;5.35;;;4.78;;
57047;SDS011;42934;54.294;18.598;2023-04-01T04:04:41;6.38;;;4.93;;
57047;SDS011;42934;54.294;18.598;2023-04-01T04:07:11;7.82;;;5.45;;
57047;SDS011;42934;54.294;18.598;2023-04-01T04:09:58;7.00;;;5.05;;
57047;SDS011;42934;54.294;18.598;2023-04-01T04:12:28;6.55;;;5.20;;
57047;SDS011;42934;54.294;18.598;2023-04-01T04:14:59;5.95;;;4.97;;
57047;SDS011;42934;54.294;18.598;2023-04-01T04:17:29;6.55;;;5.15;;
57047;SDS011;42934;54.294;18.598;2023-04-01T04:19:58;12.85;;;8.25;;
57047;SDS011;42934;54.294;18.598;2023-04-01T04:22:27;11.57;;;6.85;;
57047;SDS011;42934;54.294;18.598;2023-04-01T04:25:01;8.65;;;6.10;;
57047;SDS011;42934;54.294;18.598;2023-04-01T04:27:31;8.75;;;6.47;;
57047;SDS011;42934;54.294;18.598;2023-04-01T04:30:08;9.20;;;6.25;;
57047;SDS011;42934;54.294;18.598;2023-04-01T04:32:39;9.52;;;7.15;;
57047;SDS011;42934;54.294;18.598;2023-04-01T04:35:11;11.32;;;7.13;;
57047;SDS011;42934;54.294;18.598;2023-04-01T04:37:40;11.63;;;7.82;;
57047;SDS011;42934;54.294;18.598;2023-04-01T04:40:10;10.25;;;7.53;;
57047;SDS011;42934;54.294;18.598;2023-04-01T04:42:40;9.82;;;7.03;;
57047;SDS011;42934;54.294;18.598;2023-04-01T04:45:14;10.23;;;6.75;;
57047;SDS011;42934;54.294;18.598;2023-04-01T04:47:52;8.02;;;6.38;;
57047;SDS011;42934;54.294;18.598;2023-04-01T04:50:22;8.50;;;6.43;;
57047;SDS011;42934;54.294;18.598;2023-04-01T04:55:21;9.25;;;6.95;;
57047;SDS011;42934;54.294;18.598;2023-04-01T04:58:09;9.45;;;6.22;;
57047;SDS011;42934;54.294;18.598;2023-04-01T05:00:43;9.30;;;6.45;;
57047;SDS011;42934;54.294;18.598;2023-04-01T05:03:19;11.25;;;6.80;;
57047;SDS011;42934;54.294;18.598;2023-04-01T05:05:49;9.90;;;6.30;;
57047;SDS011;42934;54.294;18.598;2023-04-01T05:10:48;11.52;;;5.88;;
57047;SDS011;42934;54.294;18.598;2023-04-01T05:13:18;11.52;;;5.55;;
57047;SDS011;42934;54.294;18.598;2023-04-01T05:15:48;11.65;;;5.90;;
57047;SDS011;42934;54.294;18.598;2023-04-01T05:18:18;13.50;;;6.10;;
57047;SDS011;42934;54.294;18.598;2023-04-01T05:20:47;14.63;;;5.65;;
57047;SDS011;42934;54.294;18.598;2023-04-01T05:23:17;13.65;;;6.22;;
57047;SDS011;42934;54.294;18.598;2023-04-01T05:25:48;12.82;;;5.72;;
57047;SDS011;42934;54.294;18.598;2023-04-01T05:28:19;12.80;;;6.70;;
57047;SDS011;42934;54.294;18.598;2023-04-01T05:30:50;11.23;;;6.57;;
57047;SDS011;42934;54.294;18.598;2023-04-01T05:33:25;8.55;;;5.55;;
57047;SDS011;42934;54.294;18.598;2023-04-01T05:35:54;11.98;;;5.65;;
57047;SDS011;42934;54.294;18.598;2023-04-01T05:38:24;14.57;;;5.10;;
57047;SDS011;42934;54.294;18.598;2023-04-01T05:40:58;28.37;;;4.60;;
57047;SDS011;42934;54.294;18.598;2023-04-01T05:43:28;15.40;;;4.70;;
57047;SDS011;42934;54.294;18.598;2023-04-01T05:46:06;9.18;;;4.43;;
57047;SDS011;42934;54.294;18.598;2023-04-01T05:48:44;10.55;;;4.70;;
57047;SDS011;42934;54.294;18.598;2023-04-01T05:51:14;11.15;;;4.53;;
57047;SDS011;42934;54.294;18.598;2023-04-01T05:53:43;10.10;;;4.20;;
57047;SDS011;42934;54.294;18.598;2023-04-01T05:56:13;12.73;;;4.40;;
57047;SDS011;42934;54.294;18.598;2023-04-01T05:58:47;32.92;;;4.20;;
57047;SDS011;42934;54.294;18.598;2023-04-01T06:01:24;15.68;;;4.38;;
57047;SDS011;42934;54.294;18.598;2023-04-01T06:03:53;22.33;;;4.82;;
57047;SDS011;42934;54.294;18.598;2023-04-01T06:06:26;14.48;;;4.35;;
57047;SDS011;42934;54.294;18.598;2023-04-01T06:09:07;10.85;;;4.25;;
57047;SDS011;42934;54.294;18.598;2023-04-01T06:11:55;39.88;;;4.72;;
57047;SDS011;42934;54.294;18.598;2023-04-01T06:14:57;8.85;;;3.70;;
57047;SDS011;42934;54.294;18.598;2023-04-01T06:17:43;8.82;;;3.70;;
57047;SDS011;42934;54.294;18.598;2023-04-01T06:20:31;22.73;;;4.63;;
57047;SDS011;42934;54.294;18.598;2023-04-01T06:23:19;12.98;;;3.67;;
57047;SDS011;42934;54.294;18.598;2023-04-01T06:26:03;22.77;;;3.58;;
57047;SDS011;42934;54.294;18.598;2023-04-01T06:28:54;20.02;;;3.67;;
57047;SDS011;42934;54.294;18.598;2023-04-01T06:31:51;8.20;;;3.63;;
57047;SDS011;42934;54.294;18.598;2023-04-01T06:34:50;12.80;;;3.20;;
57047;SDS011;42934;54.294;18.598;2023-04-01T06:37:40;7.47;;;3.22;;
57047;SDS011;42934;54.294;18.598;2023-04-01T06:40:30;10.40;;;3.67;;
57047;SDS011;42934;54.294;18.598;2023-04-01T06:43:24;13.10;;;3.65;;
57047;SDS011;42934;54.294;18.598;2023-04-01T06:46:29;16.80;;;4.13;;
57047;SDS011;42934;54.294;18.598;2023-04-01T06:49:31;7.03;;;3.13;;
57047;SDS011;42934;54.294;18.598;2023-04-01T06:52:31;9.35;;;2.90;;
57047;SDS011;42934;54.294;18.598;2023-04-01T06:55:30;3.50;;;2.35;;
57047;SDS011;42934;54.294;18.598;2023-04-01T06:58:39;5.28;;;2.92;;
57047;SDS011;42934;54.294;18.598;2023-04-01T07:01:16;9.82;;;3.22;;
57047;SDS011;42934;54.294;18.598;2023-04-01T07:03:51;4.25;;;2.45;;
57047;SDS011;42934;54.294;18.598;2023-04-01T07:06:27;4.20;;;2.47;;
57047;SDS011;42934;54.294;18.598;2023-04-01T07:09:04;5.20;;;2.40;;
57047;SDS011;42934;54.294;18.598;2023-04-01T07:11:59;3.20;;;1.90;;
57047;SDS011;42934;54.294;18.598;2023-04-01T07:14:52;4.25;;;1.85;;
57047;SDS011;42934;54.294;18.598;2023-04-01T07:17:25;2.95;;;1.85;;
57047;SDS011;42934;54.294;18.598;2023-04-01T07:19:58;6.35;;;3.38;;
57047;SDS011;42934;54.294;18.598;2023-04-01T07:22:38;4.53;;;3.00;;
57047;SDS011;42934;54.294;18.598;2023-04-01T07:25:41;8.18;;;3.72;;
57047;SDS011;42934;54.294;18.598;2023-04-01T07:28:33;4.32;;;2.42;;
57047;SDS011;42934;54.294;18.598;2023-04-01T07:31:30;6.35;;;2.65;;
57047;SDS011;42934;54.294;18.598;2023-04-01T07:34:17;4.15;;;1.70;;
57047;SDS011;42934;54.294;18.598;2023-04-01T07:36:53;2.60;;;1.90;;
57047;SDS011;42934;54.294;18.598;2023-04-01T07:39:31;3.10;;;1.70;;
57047;SDS011;42934;54.294;18.598;2023-04-01T07:42:35;2.20;;;1.60;;
57047;SDS011;42934;54.294;18.598;2023-04-01T07:45:18;2.50;;;1.60;;
57047;SDS011;42934;54.294;18.598;2023-04-01T07:47:56;2.72;;;1.70;;
57047;SDS011;42934;54.294;18.598;2023-04-01T07:50:38;1.92;;;1.58;;
57047;SDS011;42934;54.294;18.598;2023-04-01T07:53:19;2.10;;;1.23;;
57047;SDS011;42934;54.294;18.598;2023-04-01T07:55:57;1.80;;;1.40;;
57047;SDS011;42934;54.294;18.598;2023-04-01T07:58:40;2.45;;;1.70;;
57047;SDS011;42934;54.294;18.598;2023-04-01T08:01:39;1.55;;;1.30;;
57047;SDS011;42934;54.294;18.598;2023-04-01T08:04:22;4.05;;;2.17;;
57047;SDS011;42934;54.294;18.598;2023-04-01T08:06:58;2.75;;;2.05;;
57047;SDS011;42934;54.294;18.598;2023-04-01T08:09:41;6.78;;;3.38;;
57047;SDS011;42934;54.294;18.598;2023-04-01T08:12:24;11.95;;;4.72;;
57047;SDS011;42934;54.294;18.598;2023-04-01T08:15:25;4.28;;;2.20;;
57047;SDS011;42934;54.294;18.598;2023-04-01T08:18:17;3.83;;;1.85;;
57047;SDS011;42934;54.294;18.598;2023-04-01T08:20:58;4.25;;;2.60;;
57047;SDS011;42934;54.294;18.598;2023-04-01T08:23:30;5.47;;;3.00;;
57047;SDS011;42934;54.294;18.598;2023-04-01T08:26:02;6.43;;;3.53;;
57047;SDS011;42934;54.294;18.598;2023-04-01T08:28:41;5.95;;;2.67;;
57047;SDS011;42934;54.294;18.598;2023-04-01T08:31:18;4.10;;;2.03;;
57047;SDS011;42934;54.294;18.598;2023-04-01T08:33:53;3.05;;;2.30;;
57047;SDS011;42934;54.294;18.598;2023-04-01T08:36:24;4.63;;;2.50;;
57047;SDS011;42934;54.294;18.598;2023-04-01T08:39:09;3.90;;;2.75;;
57047;SDS011;42934;54.294;18.598;2023-04-01T08:41:59;3.80;;;2.63;;
57047;SDS011;42934;54.294;18.598;2023-04-01T08:44:59;3.53;;;2.40;;
57047;SDS011;42934;54.294;18.598;2023-04-01T08:48:12;4.65;;;2.90;;
57047;SDS011;42934;54.294;18.598;2023-04-01T08:51:19;5.38;;;3.05;;
57047;SDS011;42934;54.294;18.598;2023-04-01T08:54:22;3.08;;;2.13;;
57047;SDS011;42934;54.294;18.598;2023-04-01T08:57:07;3.17;;;2.33;;
57047;SDS011;42934;54.294;18.598;2023-04-01T09:00:07;4.35;;;2.90;;
57047;SDS011;42934;54.294;18.598;2023-04-01T09:03:17;10.15;;;6.80;;
57047;SDS011;42934;54.294;18.598;2023-04-01T09:09:09;5.40;;;3.95;;
57047;SDS011;42934;54.294;18.598;2023-04-01T09:11:59;5.78;;;3.15;;
57047;SDS011;42934;54.294;18.598;2023-04-01T09:14:54;9.18;;;5.82;;
57047;SDS011;42934;54.294;18.598;2023-04-01T09:21:02;6.47;;;3.20;;
57047;SDS011;42934;54.294;18.598;2023-04-01T09:23:56;3.75;;;2.35;;
57047;SDS011;42934;54.294;18.598;2023-04-01T09:26:39;5.57;;;3.83;;
57047;SDS011;42934;54.294;18.598;2023-04-01T09:29:30;3.75;;;2.42;;
57047;SDS011;42934;54.294;18.598;2023-04-01T09:32:39;3.50;;;2.20;;
57047;SDS011;42934;54.294;18.598;2023-04-01T09:35:29;6.15;;;4.50;;
57047;SDS011;42934;54.294;18.598;2023-04-01T09:38:13;12.70;;;7.55;;
57047;SDS011;42934;54.294;18.598;2023-04-01T09:40:54;5.07;;;3.28;;
57047;SDS011;42934;54.294;18.598;2023-04-01T09:43:39;3.70;;;2.75;;
57047;SDS011;42934;54.294;18.598;2023-04-01T09:46:25;4.05;;;2.78;;
57047;SDS011;42934;54.294;18.598;2023-04-01T09:52:17;5.05;;;2.22;;
57047;SDS011;42934;54.294;18.598;2023-04-01T09:55:15;2.80;;;2.10;;
57047;SDS011;42934;54.294;18.598;2023-04-01T09:58:08;5.38;;;2.90;;
57047;SDS011;42934;54.294;18.598;2023-04-01T10:01:27;3.05;;;1.55;;
57047;SDS011;42934;54.294;18.598;2023-04-01T10:04:42;5.45;;;2.50;;
57047;SDS011;42934;54.294;18.598;2023-04-01T10:07:56;3.35;;;2.13;;
57047;SDS011;42934;54.294;18.598;2023-04-01T10:11:03;2.75;;;1.58;;
57047;SDS011;42934;54.294;18.598;2023-04-01T10:14:02;3.38;;;2.35;;
57047;SDS011;42934;54.294;18.598;2023-04-01T10:23:19;3.17;;;1.70;;
57047;SDS011;42934;54.294;18.598;2023-04-01T10:33:12;2.15;;;1.33;;
57047;SDS011;42934;54.294;18.598;2023-04-01T10:36:14;2.38;;;1.20;;
57047;SDS011;42934;54.294;18.598;2023-04-01T10:39:10;2.53;;;1.67;;
57047;SDS011;42934;54.294;18.598;2023-04-01T10:45:57;2.95;;;2.33;;
57047;SDS011;42934;54.294;18.598;2023-04-01T10:49:02;2.63;;;2.08;;
57047;SDS011;42934;54.294;18.598;2023-04-01T10:55:37;6.68;;;2.92;;
57047;SDS011;42934;54.294;18.598;2023-04-01T11:02:38;11.82;;;3.55;;
57047;SDS011;42934;54.294;18.598;2023-04-01T11:09:23;11.32;;;4.10;;
57047;SDS011;42934;54.294;18.598;2023-04-01T11:12:33;15.10;;;5.90;;
57047;SDS011;42934;54.294;18.598;2023-04-01T11:15:34;10.35;;;4.32;;
57047;SDS011;42934;54.294;18.598;2023-04-01T11:28:20;11.90;;;3.42;;
57047;SDS011;42934;54.294;18.598;2023-04-01T11:31:10;6.97;;;2.58;;
57047;SDS011;42934;54.294;18.598;2023-04-01T11:33:53;4.63;;;2.40;;
57047;SDS011;42934;54.294;18.598;2023-04-01T11:36:35;11.82;;;6.13;;
57047;SDS011;42934;54.294;18.598;2023-04-01T11:39:20;9.52;;;3.50;;
57047;SDS011;42934;54.294;18.598;2023-04-01T11:42:03;9.07;;;3.15;;
57047;SDS011;42934;54.294;18.598;2023-04-01T11:45:12;6.55;;;2.35;;
57047;SDS011;42934;54.294;18.598;2023-04-01T11:47:56;4.13;;;1.80;;
57047;SDS011;42934;54.294;18.598;2023-04-01T11:50:45;3.25;;;1.80;;
57047;SDS011;42934;54.294;18.598;2023-04-01T11:53:36;3.30;;;2.05;;
57047;SDS011;42934;54.294;18.598;2023-04-01T11:56:21;7.97;;;2.40;;
57047;SDS011;42934;54.294;18.598;2023-04-01T11:59:05;9.23;;;3.40;;
57047;SDS011;42934;54.294;18.598;2023-04-01T12:01:56;7.72;;;3.30;;
57047;SDS011;42934;54.294;18.598;2023-04-01T12:07:57;9.52;;;3.65;;
57047;SDS011;42934;54.294;18.598;2023-04-01T12:10:38;9.95;;;3.13;;
57047;SDS011;42934;54.294;18.598;2023-04-01T12:13:21;10.30;;;2.78;;
57047;SDS011;42934;54.294;18.598;2023-04-01T12:16:12;5.35;;;2.30;;
57047;SDS011;42934;54.294;18.598;2023-04-01T12:18:57;6.47;;;2.90;;
57047;SDS011;42934;54.294;18.598;2023-04-01T12:21:33;3.90;;;1.80;;
57047;SDS011;42934;54.294;18.598;2023-04-01T12:24:25;2.50;;;1.45;;
57047;SDS011;42934;54.294;18.598;2023-04-01T12:27:07;5.20;;;2.35;;
57047;SDS011;42934;54.294;18.598;2023-04-01T12:30:02;2.90;;;1.52;;
57047;SDS011;42934;54.294;18.598;2023-04-01T12:32:57;4.00;;;2.05;;
57047;SDS011;42934;54.294;18.598;2023-04-01T12:35:45;3.75;;;2.10;;
57047;SDS011;42934;54.294;18.598;2023-04-01T12:38:30;2.90;;;1.70;;
57047;SDS011;42934;54.294;18.598;2023-04-01T12:43:52;4.05;;;1.80;;
57047;SDS011;42934;54.294;18.598;2023-04-01T12:46:39;4.45;;;2.13;;
57047;SDS011;42934;54.294;18.598;2023-04-01T12:49:34;2.40;;;1.65;;
57047;SDS011;42934;54.294;18.598;2023-04-01T12:52:19;2.47;;;1.73;;
57047;SDS011;42934;54.294;18.598;2023-04-01T12:58:11;4.57;;;1.88;;
57047;SDS011;42934;54.294;18.598;2023-04-01T13:01:17;4.57;;;1.85;;
57047;SDS011;42934;54.294;18.598;2023-04-01T13:07:26;3.80;;;2.00;;
57047;SDS011;42934;54.294;18.598;2023-04-01T13:10:26;2.92;;;1.70;;
57047;SDS011;42934;54.294;18.598;2023-04-01T13:13:10;2.05;;;1.63;;
57047;SDS011;42934;54.294;18.598;2023-04-01T13:15:55;8.10;;;4.53;;
57047;SDS011;42934;54.294;18.598;2023-04-01T13:18:31;5.97;;;3.85;;
57047;SDS011;42934;54.294;18.598;2023-04-01T13:21:10;11.35;;;4.70;;
57047;SDS011;42934;54.294;18.598;2023-04-01T13:23:49;3.28;;;1.70;;
57047;SDS011;42934;54.294;18.598;2023-04-01T13:26:27;3.80;;;1.77;;
57047;SDS011;42934;54.294;18.598;2023-04-01T13:29:04;2.42;;;1.63;;
57047;SDS011;42934;54.294;18.598;2023-04-01T13:31:43;2.83;;;1.45;;
57047;SDS011;42934;54.294;18.598;2023-04-01T13:34:27;3.95;;;1.65;;
57047;SDS011;42934;54.294;18.598;2023-04-01T13:37:15;2.80;;;1.83;;
57047;SDS011;42934;54.294;18.598;2023-04-01T13:39:59;3.70;;;2.30;;
57047;SDS011;42934;54.294;18.598;2023-04-01T13:42:43;2.85;;;1.58;;
57047;SDS011;42934;54.294;18.598;2023-04-01T13:45:18;5.28;;;2.20;;
57047;SDS011;42934;54.294;18.598;2023-04-01T13:51:21;15.15;;;6.25;;
57047;SDS011;42934;54.294;18.598;2023-04-01T13:57:14;7.00;;;2.80;;
57047;SDS011;42934;54.294;18.598;2023-04-01T13:59:58;2.42;;;1.67;;
57047;SDS011;42934;54.294;18.598;2023-04-01T14:05:42;4.38;;;2.00;;
57047;SDS011;42934;54.294;18.598;2023-04-01T14:08:26;18.88;;;8.30;;
57047;SDS011;42934;54.294;18.598;2023-04-01T14:11:13;16.45;;;8.73;;
57047;SDS011;42934;54.294;18.598;2023-04-01T14:13:50;5.18;;;2.80;;
57047;SDS011;42934;54.294;18.598;2023-04-01T14:16:47;6.00;;;3.33;;
57047;SDS011;42934;54.294;18.598;2023-04-01T14:19:46;3.13;;;2.35;;
57047;SDS011;42934;54.294;18.598;2023-04-01T14:22:28;4.65;;;2.47;;
57047;SDS011;42934;54.294;18.598;2023-04-01T14:28:03;4.75;;;3.10;;
57047;SDS011;42934;54.294;18.598;2023-04-01T14:30:55;6.78;;;2.65;;
57047;SDS011;42934;54.294;18.598;2023-04-01T14:33:38;4.60;;;2.70;;
57047;SDS011;42934;54.294;18.598;2023-04-01T14:36:27;3.40;;;2.13;;
57047;SDS011;42934;54.294;18.598;2023-04-01T14:39:08;3.60;;;2.38;;
57047;SDS011;42934;54.294;18.598;2023-04-01T14:41:48;4.22;;;2.53;;
57047;SDS011;42934;54.294;18.598;2023-04-01T14:47:50;11.98;;;4.55;;
57047;SDS011;42934;54.294;18.598;2023-04-01T14:50:24;8.95;;;3.85;;
57047;SDS011;42934;54.294;18.598;2023-04-01T14:52:57;5.05;;;2.70;;
57047;SDS011;42934;54.294;18.598;2023-04-01T14:55:30;6.82;;;2.95;;
57047;SDS011;42934;54.294;18.598;2023-04-01T14:58:09;3.88;;;2.72;;
57047;SDS011;42934;54.294;18.598;2023-04-01T15:00:52;6.50;;;3.45;;
57047;SDS011;42934;54.294;18.598;2023-04-01T15:03:30;6.53;;;3.20;;
57047;SDS011;42934;54.294;18.598;2023-04-01T15:09:05;7.75;;;3.05;;
57047;SDS011;42934;54.294;18.598;2023-04-01T15:11:49;8.52;;;4.45;;
57047;SDS011;42934;54.294;18.598;2023-04-01T15:14:31;14.55;;;5.25;;
57047;SDS011;42934;54.294;18.598;2023-04-01T15:17:17;15.98;;;6.78;;
57047;SDS011;42934;54.294;18.598;2023-04-01T15:20:08;8.98;;;4.75;;
57047;SDS011;42934;54.294;18.598;2023-04-01T15:22:57;13.35;;;5.28;;
57047;SDS011;42934;54.294;18.598;2023-04-01T15:25:43;7.68;;;3.25;;
57047;SDS011;42934;54.294;18.598;2023-04-01T15:28:24;6.80;;;3.55;;
57047;SDS011;42934;54.294;18.598;2023-04-01T15:31:00;7.22;;;3.40;;
57047;SDS011;42934;54.294;18.598;2023-04-01T15:33:49;13.15;;;4.90;;
57047;SDS011;42934;54.294;18.598;2023-04-01T15:36:35;9.10;;;4.70;;
57047;SDS011;42934;54.294;18.598;2023-04-01T15:39:11;17.65;;;6.70;;
57047;SDS011;42934;54.294;18.598;2023-04-01T15:41:46;9.35;;;4.68;;
57047;SDS011;42934;54.294;18.598;2023-04-01T15:47:36;5.72;;;3.72;;
57047;SDS011;42934;54.294;18.598;2023-04-01T15:53:19;12.48;;;5.65;;
57047;SDS011;42934;54.294;18.598;2023-04-01T15:56:08;12.13;;;6.10;;
57047;SDS011;42934;54.294;18.598;2023-04-01T15:58:51;14.02;;;6.15;;
57047;SDS011;42934;54.294;18.598;2023-04-01T16:01:31;11.68;;;6.10;;
57047;SDS011;42934;54.294;18.598;2023-04-01T16:04:17;9.48;;;6.15;;
57047;SDS011;42934;54.294;18.598;2023-04-01T16:07:03;8.27;;;4.25;;
57047;SDS011;42934;54.294;18.598;2023-04-01T16:09:52;10.98;;;6.28;;
57047;SDS011;42934;54.294;18.598;2023-04-01T16:12:41;11.57;;;6.60;;
57047;SDS011;42934;54.294;18.598;2023-04-01T16:15:23;16.90;;;8.10;;
57047;SDS011;42934;54.294;18.598;2023-04-01T16:18:00;17.10;;;8.38;;
57047;SDS011;42934;54.294;18.598;2023-04-01T16:20:46;12.35;;;6.78;;
57047;SDS011;42934;54.294;18.598;2023-04-01T16:23:22;9.65;;;5.93;;
57047;SDS011;42934;54.294;18.598;2023-04-01T16:26:03;11.73;;;5.45;;
57047;SDS011;42934;54.294;18.598;2023-04-01T16:28:39;13.30;;;6.47;;
57047;SDS011;42934;54.294;18.598;2023-04-01T16:31:25;9.38;;;5.13;;
57047;SDS011;42934;54.294;18.598;2023-04-01T16:34:04;8.93;;;5.90;;
57047;SDS011;42934;54.294;18.598;2023-04-01T16:36:44;12.20;;;6.97;;
57047;SDS011;42934;54.294;18.598;2023-04-01T16:39:26;16.83;;;7.35;;
57047;SDS011;42934;54.294;18.598;2023-04-01T16:42:19;8.55;;;5.20;;
57047;SDS011;42934;54.294;18.598;2023-04-01T16:45:00;6.88;;;5.38;;
57047;SDS011;42934;54.294;18.598;2023-04-01T16:47:45;11.27;;;4.95;;
57047;SDS011;42934;54.294;18.598;2023-04-01T16:50:23;16.05;;;6.47;;
57047;SDS011;42934;54.294;18.598;2023-04-01T16:52:59;10.65;;;6.30;;
57047;SDS011;42934;54.294;18.598;2023-04-01T16:55:43;9.73;;;5.95;;
57047;SDS011;42934;54.294;18.598;2023-04-01T16:58:20;9.20;;;4.78;;
57047;SDS011;42934;54.294;18.598;2023-04-01T17:00:55;9.05;;;5.13;;
57047;SDS011;42934;54.294;18.598;2023-04-01T17:03:32;14.15;;;6.15;;
57047;SDS011;42934;54.294;18.598;2023-04-01T17:06:11;10.25;;;5.07;;
57047;SDS011;42934;54.294;18.598;2023-04-01T17:09:07;8.55;;;4.80;;
57047;SDS011;42934;54.294;18.598;2023-04-01T17:11:49;10.27;;;5.07;;
57047;SDS011;42934;54.294;18.598;2023-04-01T17:14:28;10.02;;;5.00;;
57047;SDS011;42934;54.294;18.598;2023-04-01T17:17:09;7.63;;;4.30;;
57047;SDS011;42934;54.294;18.598;2023-04-01T17:19:48;9.90;;;4.88;;
57047;SDS011;42934;54.294;18.598;2023-04-01T17:22:31;7.65;;;4.85;;